Time,TemperatureF,DewpointF,PressureIn,WindDirection,WindDirectionDegrees,WindSpeedMPH,WindSpeedGustMPH,Humidity,HourlyPrecipIn,Conditions,Clouds,dailyrainin,SoftwareType,DateUTC
2013-04-11 00:04:00,55.4,53.7,29.78,WSW,258,2.0,13.0,94,0.23,,---,0.23,VWS V14.01,2013-04-11 05:04:00,
2013-04-11 00:06:00,55.3,53.6,29.78,WNW,299,0.0,13.0,94,0.24,,---,0.00,VWS V14.01,2013-04-11 05:06:00,
2013-04-11 00:14:00,54.9,53.2,29.78,WNW,293,2.0,7.0,94,0.31,,---,0.07,VWS V14.01,2013-04-11 05:14:00,
2013-04-11 00:19:00,54.8,53.1,29.79,West,272,0.0,7.0,94,0.32,,---,0.08,VWS V14.01,2013-04-11 05:19:00,
2013-04-11 00:24:00,54.6,52.9,29.78,West,266,2.0,7.0,94,0.32,,---,0.08,VWS V14.01,2013-04-11 05:24:00,
2013-04-11 00:29:00,54.4,53.0,29.79,West,272,7.0,7.0,95,0.37,,---,0.13,VWS V14.01,2013-04-11 05:29:00,
2013-04-11 00:34:00,54.1,52.7,29.78,WNW,300,5.0,9.0,95,0.48,,---,0.24,VWS V14.01,2013-04-11 05:34:00,
2013-04-11 00:36:00,54.0,52.6,29.78,WNW,284,4.0,9.0,95,0.55,,---,0.31,VWS V14.01,2013-04-11 05:36:00,
2013-04-11 00:39:00,53.7,52.3,29.79,NW,304,4.0,6.0,95,0.56,,---,0.35,VWS V14.01,2013-04-11 05:39:00,
2013-04-11 00:44:00,53.5,52.1,29.80,West,265,4.0,7.0,95,0.60,,---,0.39,VWS V14.01,2013-04-11 05:44:00,
2013-04-11 00:49:00,53.3,51.9,29.80,WNW,300,5.0,7.0,95,0.61,,---,0.40,VWS V14.01,2013-04-11 05:49:00,
2013-04-11 00:54:00,53.3,51.9,29.80,WNW,293,2.0,7.0,95,0.61,,---,0.40,VWS V14.01,2013-04-11 05:54:00,
2013-04-11 00:59:00,53.3,51.9,29.80,WNW,282,7.0,7.0,95,0.61,,---,0.40,VWS V14.01,2013-04-11 05:59:00,
2013-04-11 01:04:00,53.2,51.8,29.80,West,276,4.0,7.0,95,0.62,,---,0.41,VWS V14.01,2013-04-11 06:04:00,
2013-04-11 01:06:00,53.1,51.7,29.80,NNE,26,5.0,7.0,95,0.62,,---,0.41,VWS V14.01,2013-04-11 06:06:00,
2013-04-11 01:14:00,52.9,51.8,29.81,West,273,1.0,10.0,96,0.41,,---,0.41,VWS V14.01,2013-04-11 06:14:00,
2013-04-11 01:19:00,52.5,51.1,29.80,West,270,1.0,11.0,95,0.41,,---,0.41,VWS V14.01,2013-04-11 06:19:00,
2013-04-11 01:24:00,52.0,50.6,29.80,West,281,7.0,11.0,95,0.42,,---,0.42,VWS V14.01,2013-04-11 06:24:00,
2013-04-11 01:29:00,51.7,50.3,29.79,NNW,332,0.0,11.0,95,0.42,,---,0.42,VWS V14.01,2013-04-11 06:29:00,
2013-04-11 01:34:00,51.4,50.0,29.80,NNW,345,2.0,11.0,95,0.43,,---,0.43,VWS V14.01,2013-04-11 06:34:00,
2013-04-11 01:39:00,51.2,49.8,29.80,North,350,2.0,6.0,95,0.13,,---,0.44,VWS V14.01,2013-04-11 06:39:00,
2013-04-11 01:44:00,51.0,49.6,29.79,SW,232,1.0,6.0,95,0.14,,---,0.45,VWS V14.01,2013-04-11 06:44:00,
2013-04-11 01:49:00,51.0,49.6,29.80,WNW,297,2.0,6.0,95,0.15,,---,0.46,VWS V14.01,2013-04-11 06:49:00,
2013-04-11 01:54:00,51.0,49.6,29.78,West,259,3.0,6.0,95,0.15,,---,0.46,VWS V14.01,2013-04-11 06:54:00,
2013-04-11 01:59:00,51.0,49.9,29.78,West,273,4.0,6.0,96,0.15,,---,0.46,VWS V14.01,2013-04-11 06:59:00,
2013-04-11 02:04:00,51.0,49.6,29.79,SSE,161,1.0,6.0,95,0.15,,---,0.46,VWS V14.01,2013-04-11 07:04:00,
2013-04-11 02:06:00,51.0,49.9,29.80,SSE,161,0.0,6.0,96,0.15,,---,0.46,VWS V14.01,2013-04-11 07:06:00,
2013-04-11 02:14:00,51.3,50.2,29.78,SSW,202,2.0,4.0,96,0.06,,---,0.47,VWS V14.01,2013-04-11 07:14:00,
2013-04-11 02:19:00,51.2,50.1,29.79,SW,236,4.0,6.0,96,0.07,,---,0.48,VWS V14.01,2013-04-11 07:19:00,
2013-04-11 02:24:00,51.0,49.9,29.77,NNE,26,2.0,6.0,96,0.08,,---,0.49,VWS V14.01,2013-04-11 07:24:00,
2013-04-11 02:29:00,51.2,50.1,29.78,WNW,293,2.0,6.0,96,0.08,,---,0.49,VWS V14.01,2013-04-11 07:29:00,
2013-04-11 02:34:00,51.1,50.0,29.78,SW,227,0.0,6.0,96,0.12,,---,0.53,VWS V14.01,2013-04-11 07:34:00,
2013-04-11 02:36:00,51.2,50.1,29.78,SW,227,0.0,6.0,96,0.13,,---,0.54,VWS V14.01,2013-04-11 07:36:00,
2013-04-11 02:40:00,51.2,50.1,29.77,North,11,2.0,3.0,96,0.16,,---,0.59,VWS V14.01,2013-04-11 07:40:00,
2013-04-11 02:45:00,51.0,49.9,29.76,NW,306,1.0,6.0,96,0.17,,---,0.60,VWS V14.01,2013-04-11 07:45:00,
2013-04-11 02:50:00,51.0,49.9,29.75,ENE,71,1.0,6.0,96,0.17,,---,0.60,VWS V14.01,2013-04-11 07:50:00,
2013-04-11 02:55:00,51.1,50.0,29.76,ENE,76,1.0,6.0,96,0.17,,---,0.60,VWS V14.01,2013-04-11 07:55:00,
2013-04-11 03:00:00,51.1,50.0,29.76,South,182,1.0,6.0,96,0.18,,---,0.61,VWS V14.01,2013-04-11 08:00:00,
2013-04-11 03:05:00,51.3,50.2,29.75,South,178,0.0,6.0,96,0.18,,---,0.61,VWS V14.01,2013-04-11 08:05:00,
2013-04-11 03:06:00,51.3,50.2,29.76,West,259,4.0,6.0,96,0.18,,---,0.61,VWS V14.01,2013-04-11 08:06:00,
2013-04-11 03:10:00,51.4,50.3,29.78,West,267,5.0,8.0,96,0.15,,---,0.61,VWS V14.01,2013-04-11 08:10:00,
2013-04-11 03:15:00,51.2,50.1,29.77,WSW,251,4.0,11.0,96,0.15,,---,0.61,VWS V14.01,2013-04-11 08:15:00,
2013-04-11 03:31:00,50.5,49.4,29.76,NW,325,1.0,9.0,96,0.15,,---,0.61,VWS V14.01,2013-04-11 08:31:00,
2013-04-11 03:36:00,50.4,49.3,29.76,SW,221,1.0,2.0,96,0.08,,---,0.62,VWS V14.01,2013-04-11 08:36:00,
2013-04-11 03:41:00,50.1,49.0,29.76,WNW,290,3.0,6.0,96,0.08,,---,0.62,VWS V14.01,2013-04-11 08:41:00,
2013-04-11 03:46:00,50.2,49.1,29.76,WSW,252,2.0,6.0,96,0.08,,---,0.62,VWS V14.01,2013-04-11 08:46:00,
2013-04-11 03:51:00,50.0,48.9,29.75,North,5,3.0,7.0,96,0.08,,---,0.62,VWS V14.01,2013-04-11 08:51:00,
2013-04-11 03:56:00,50.0,48.9,29.76,ENE,67,1.0,7.0,96,0.08,,---,0.62,VWS V14.01,2013-04-11 08:56:00,
2013-04-11 04:01:00,49.8,48.7,29.77,West,275,1.0,7.0,96,0.08,,---,0.62,VWS V14.01,2013-04-11 09:01:00,
2013-04-11 04:06:00,49.8,48.7,29.77,WNW,283,1.0,7.0,96,0.08,,---,0.62,VWS V14.01,2013-04-11 09:06:00,
2013-04-11 04:12:00,49.7,48.6,29.78,NW,305,2.0,8.0,96,0.01,,---,0.62,VWS V14.01,2013-04-11 09:12:00,
2013-04-11 04:17:00,49.6,48.5,29.78,WNW,283,4.0,8.0,96,0.01,,---,0.62,VWS V14.01,2013-04-11 09:17:00,
2013-04-11 04:22:00,49.6,48.5,29.77,SW,223,3.0,9.0,96,0.01,,---,0.62,VWS V14.01,2013-04-11 09:22:00,
2013-04-11 04:27:00,49.4,48.3,29.77,NE,43,4.0,10.0,96,0.01,,---,0.62,VWS V14.01,2013-04-11 09:27:00,
2013-04-11 04:32:00,49.3,48.2,29.77,West,259,1.0,10.0,96,0.01,,---,0.62,VWS V14.01,2013-04-11 09:32:00,
2013-04-11 04:37:00,49.1,48.0,29.76,NNW,347,2.0,4.0,96,0.00,,---,0.62,VWS V14.01,2013-04-11 09:37:00,
2013-04-11 04:42:00,49.1,48.0,29.77,West,275,4.0,6.0,96,0.01,,---,0.63,VWS V14.01,2013-04-11 09:42:00,
2013-04-11 04:47:00,48.9,47.8,29.77,NNW,327,3.0,7.0,96,0.01,,---,0.63,VWS V14.01,2013-04-11 09:47:00,
2013-04-11 04:52:00,48.8,47.7,29.75,North,360,0.0,8.0,96,0.01,,---,0.63,VWS V14.01,2013-04-11 09:52:00,
2013-04-11 04:57:00,48.9,47.8,29.76,SW,223,3.0,8.0,96,0.01,,---,0.63,VWS V14.01,2013-04-11 09:57:00,
2013-04-11 05:02:00,48.9,47.8,29.76,North,355,0.0,8.0,96,0.01,,---,0.63,VWS V14.01,2013-04-11 10:02:00,
2013-04-11 05:06:00,48.8,47.7,29.75,WSW,258,3.0,8.0,96,0.01,,---,0.63,VWS V14.01,2013-04-11 10:06:00,
2013-04-11 05:07:00,48.8,47.7,29.76,WSW,258,1.0,3.0,96,0.01,,---,0.63,VWS V14.01,2013-04-11 10:07:00,
2013-04-11 05:12:00,48.7,47.6,29.76,WNW,282,2.0,5.0,96,0.01,,---,0.63,VWS V14.01,2013-04-11 10:12:00,
2013-04-11 05:17:00,48.5,47.4,29.75,NNW,341,0.0,7.0,96,0.01,,---,0.63,VWS V14.01,2013-04-11 10:17:00,
2013-04-11 05:22:00,48.6,47.5,29.75,West,281,1.0,14.0,96,0.01,,---,0.63,VWS V14.01,2013-04-11 10:22:00,
2013-04-11 05:27:00,48.4,47.3,29.75,NNE,18,2.0,14.0,96,0.01,,---,0.63,VWS V14.01,2013-04-11 10:27:00,
2013-04-11 05:32:00,48.3,47.2,29.75,NNW,338,1.0,14.0,96,0.01,,---,0.63,VWS V14.01,2013-04-11 10:32:00,
2013-04-11 05:36:00,48.2,47.1,29.74,NE,55,1.0,14.0,96,0.01,,---,0.63,VWS V14.01,2013-04-11 10:36:00,
2013-04-11 05:37:00,48.2,47.1,29.74,East,86,3.0,4.0,96,0.01,,---,0.63,VWS V14.01,2013-04-11 10:37:00,
2013-04-11 05:42:00,48.1,47.0,29.73,NNE,22,2.0,9.0,96,0.02,,---,0.64,VWS V14.01,2013-04-11 10:42:00,
2013-04-11 05:47:00,48.2,47.1,29.74,WSW,250,0.0,9.0,96,0.02,,---,0.64,VWS V14.01,2013-04-11 10:47:00,
2013-04-11 05:52:00,48.1,47.0,29.74,ENE,78,2.0,9.0,96,0.02,,---,0.64,VWS V14.01,2013-04-11 10:52:00,
2013-04-11 05:57:00,48.2,47.1,29.74,East,88,2.0,9.0,96,0.03,,---,0.65,VWS V14.01,2013-04-11 10:57:00,
2013-04-11 06:02:00,48.2,47.1,29.75,ESE,105,0.0,9.0,96,0.03,,---,0.65,VWS V14.01,2013-04-11 11:02:00,
2013-04-11 06:06:00,48.3,47.2,29.75,NW,324,0.0,9.0,96,0.03,,---,0.65,VWS V14.01,2013-04-11 11:06:00,
2013-04-11 06:07:00,48.3,47.2,29.75,NW,324,0.0,1.0,96,0.02,,---,0.65,VWS V14.01,2013-04-11 11:07:00,
2013-04-11 06:12:00,48.5,47.4,29.76,North,11,0.0,3.0,96,0.02,,---,0.65,VWS V14.01,2013-04-11 11:12:00,
2013-04-11 06:17:00,48.4,47.3,29.78,WNW,303,2.0,7.0,96,0.03,,---,0.66,VWS V14.01,2013-04-11 11:17:00,
2013-04-11 06:22:00,48.3,47.2,29.77,SE,146,0.0,7.0,96,0.04,,---,0.67,VWS V14.01,2013-04-11 11:22:00,
2013-04-11 06:27:00,48.3,47.2,29.77,NNW,340,2.0,7.0,96,0.04,,---,0.67,VWS V14.01,2013-04-11 11:27:00,
2013-04-11 06:32:00,48.3,47.2,29.76,SE,142,1.0,7.0,96,0.04,,---,0.67,VWS V14.01,2013-04-11 11:32:00,
2013-04-11 06:36:00,48.1,47.0,29.77,West,259,4.0,7.0,96,0.04,,---,0.67,VWS V14.01,2013-04-11 11:36:00,
2013-04-11 06:42:00,48.1,47.0,29.78,SW,236,3.0,5.0,96,0.04,,---,0.67,VWS V14.01,2013-04-11 11:42:00,
2013-04-11 06:47:00,48.0,46.9,29.81,WNW,282,5.0,9.0,96,0.04,,---,0.67,VWS V14.01,2013-04-11 11:47:00,
2013-04-11 06:52:00,48.0,46.9,29.78,NE,55,4.0,9.0,96,0.04,,---,0.67,VWS V14.01,2013-04-11 11:52:00,
2013-04-11 06:57:00,47.9,46.8,29.80,West,260,4.0,12.0,96,0.05,,---,0.68,VWS V14.01,2013-04-11 11:57:00,
2013-04-11 07:02:00,47.7,46.6,29.81,NW,305,1.0,12.0,96,0.05,,---,0.68,VWS V14.01,2013-04-11 12:02:00,
2013-04-11 07:06:00,47.6,46.5,29.81,North,5,0.0,12.0,96,0.05,,---,0.68,VWS V14.01,2013-04-11 12:06:00,
2013-04-11 07:07:00,47.6,46.5,29.82,WSW,254,5.0,6.0,96,0.03,,---,0.68,VWS V14.01,2013-04-11 12:07:00,
2013-04-11 07:12:00,47.6,46.5,29.82,NE,44,3.0,8.0,96,0.03,,---,0.68,VWS V14.01,2013-04-11 12:12:00,
2013-04-11 07:17:00,47.3,46.2,29.79,ENE,76,1.0,8.0,96,0.04,,---,0.69,VWS V14.01,2013-04-11 12:17:00,
2013-04-11 07:22:00,47.3,46.2,29.82,West,278,5.0,8.0,96,0.05,,---,0.70,VWS V14.01,2013-04-11 12:22:00,
2013-04-11 07:27:00,47.3,46.2,29.79,East,92,6.0,8.0,96,0.06,,---,0.71,VWS V14.01,2013-04-11 12:27:00,
2013-04-11 07:32:00,47.1,46.0,29.81,NNW,332,1.0,8.0,96,0.08,,---,0.73,VWS V14.01,2013-04-11 12:32:00,
2013-04-11 07:36:00,47.0,45.9,29.81,North,355,1.0,8.0,96,0.09,,---,0.74,VWS V14.01,2013-04-11 12:36:00,
2013-04-11 07:37:00,47.0,45.9,29.81,North,355,1.0,3.0,96,0.08,,---,0.75,VWS V14.01,2013-04-11 12:37:00,
2013-04-11 07:42:00,47.0,45.9,29.81,East,87,0.0,7.0,96,0.11,,---,0.78,VWS V14.01,2013-04-11 12:42:00,
2013-04-11 07:47:00,47.0,45.9,29.80,West,270,2.0,7.0,96,0.15,,---,0.82,VWS V14.01,2013-04-11 12:47:00,
2013-04-11 07:52:00,46.8,45.7,29.83,West,270,2.0,7.0,96,0.17,,---,0.84,VWS V14.01,2013-04-11 12:52:00,
2013-04-11 07:57:00,46.8,45.7,29.83,West,275,0.0,9.0,96,0.19,,---,0.86,VWS V14.01,2013-04-11 12:57:00,
2013-04-11 08:02:00,46.8,45.7,29.85,WSW,244,7.0,10.0,96,0.27,,---,0.94,VWS V14.01,2013-04-11 13:02:00,
2013-04-11 08:07:00,46.7,45.6,29.84,NE,54,4.0,5.0,96,0.30,,---,0.98,VWS V14.01,2013-04-11 13:07:00,
2013-04-11 08:12:00,46.7,45.6,29.78,North,355,0.0,5.0,96,0.43,,---,1.11,VWS V14.01,2013-04-11 13:12:00,
2013-04-11 08:17:00,46.5,45.4,29.81,WSW,237,4.0,5.0,96,0.46,,---,1.14,VWS V14.01,2013-04-11 13:17:00,
2013-04-11 08:22:00,46.3,45.2,29.80,NE,56,1.0,6.0,96,0.47,,---,1.15,VWS V14.01,2013-04-11 13:22:00,
2013-04-11 08:27:00,46.5,45.4,29.82,WNW,282,4.0,6.0,96,0.48,,---,1.16,VWS V14.01,2013-04-11 13:27:00,
2013-04-11 08:32:00,46.5,45.4,29.80,North,5,1.0,6.0,96,0.49,,---,1.17,VWS V14.01,2013-04-11 13:32:00,
2013-04-11 08:36:00,46.5,45.4,29.78,NNE,25,0.0,6.0,96,0.50,,---,1.18,VWS V14.01,2013-04-11 13:36:00,
2013-04-11 08:37:00,46.5,45.4,29.77,NNE,32,2.0,4.0,96,0.44,,---,1.18,VWS V14.01,2013-04-11 13:37:00,
2013-04-11 08:43:00,46.4,45.3,29.81,West,279,3.0,8.0,96,0.45,,---,1.19,VWS V14.01,2013-04-11 13:43:00,
2013-04-11 08:48:00,46.4,45.3,29.81,East,84,2.0,8.0,96,0.45,,---,1.19,VWS V14.01,2013-04-11 13:48:00,
2013-04-11 08:53:00,46.5,45.4,29.81,West,280,4.0,8.0,96,0.46,,---,1.20,VWS V14.01,2013-04-11 13:53:00,
2013-04-11 08:58:00,46.4,45.3,29.84,WSW,250,2.0,8.0,96,0.47,,---,1.21,VWS V14.01,2013-04-11 13:58:00,
2013-04-11 09:03:00,46.5,45.4,29.83,WNW,284,7.0,9.0,96,0.48,,---,1.22,VWS V14.01,2013-04-11 14:03:00,
2013-04-11 09:06:00,46.4,45.3,29.82,WNW,297,6.0,9.0,96,0.49,,---,1.23,VWS V14.01,2013-04-11 14:06:00,
2013-04-11 09:08:00,46.4,45.3,29.82,West,279,5.0,6.0,96,0.27,,---,1.23,VWS V14.01,2013-04-11 14:08:00,
2013-04-11 09:13:00,46.3,45.2,29.85,WNW,303,3.0,13.0,96,0.28,,---,1.24,VWS V14.01,2013-04-11 14:13:00,
2013-04-11 09:18:00,46.2,45.1,29.84,NW,321,3.0,13.0,96,0.28,,---,1.24,VWS V14.01,2013-04-11 14:18:00,
2013-04-11 09:23:00,46.3,45.2,29.83,West,265,6.0,13.0,96,0.29,,---,1.25,VWS V14.01,2013-04-11 14:23:00,
2013-04-11 09:28:00,46.1,45.0,29.85,WNW,282,2.0,13.0,96,0.29,,---,1.25,VWS V14.01,2013-04-11 14:28:00,
2013-04-11 09:33:00,46.2,45.1,29.83,NNE,28,2.0,13.0,96,0.29,,---,1.25,VWS V14.01,2013-04-11 14:33:00,
2013-04-11 09:36:00,46.3,45.2,29.81,NNW,336,0.0,13.0,96,0.29,,---,1.25,VWS V14.01,2013-04-11 14:36:00,
2013-04-11 09:38:00,46.4,45.6,29.81,NNE,13,2.0,4.0,97,0.07,,---,1.25,VWS V14.01,2013-04-11 14:38:00,
2013-04-11 09:43:00,46.6,45.8,29.84,West,278,4.0,9.0,97,0.07,,---,1.25,VWS V14.01,2013-04-11 14:43:00,
2013-04-11 09:48:00,46.6,45.5,29.85,SSW,207,0.0,9.0,96,0.07,,---,1.25,VWS V14.01,2013-04-11 14:48:00,
2013-04-11 09:53:00,46.7,45.6,29.84,NNE,13,3.0,9.0,96,0.08,,---,1.26,VWS V14.01,2013-04-11 14:53:00,
2013-04-11 09:58:00,46.5,45.4,29.84,West,269,4.0,9.0,96,0.08,,---,1.26,VWS V14.01,2013-04-11 14:58:00,
2013-04-11 10:03:00,46.5,45.4,29.85,NW,304,5.0,9.0,96,0.08,,---,1.26,VWS V14.01,2013-04-11 15:03:00,
2013-04-11 10:08:00,46.5,45.4,29.84,NW,320,3.0,6.0,96,0.04,,---,1.27,VWS V14.01,2013-04-11 15:08:00,
2013-04-11 10:13:00,46.5,45.4,29.84,West,273,4.0,6.0,96,0.04,,---,1.27,VWS V14.01,2013-04-11 15:13:00,
2013-04-11 10:18:00,46.4,45.3,29.86,WNW,284,3.0,9.0,96,0.04,,---,1.27,VWS V14.01,2013-04-11 15:18:00,
2013-04-11 10:23:00,46.4,45.3,29.86,SW,234,3.0,9.0,96,0.05,,---,1.28,VWS V14.01,2013-04-11 15:23:00,
2013-04-11 10:28:00,46.2,45.1,29.88,WSW,245,3.0,9.0,96,0.05,,---,1.28,VWS V14.01,2013-04-11 15:28:00,
2013-04-11 10:33:00,46.4,45.3,29.89,WNW,300,4.0,9.0,96,0.05,,---,1.28,VWS V14.01,2013-04-11 15:33:00,
2013-04-11 10:36:00,46.3,45.2,29.88,NW,322,2.0,9.0,96,0.05,,---,1.28,VWS V14.01,2013-04-11 15:36:00,
2013-04-11 10:38:00,46.4,45.3,29.87,WSW,237,0.0,5.0,96,0.04,,---,1.29,VWS V14.01,2013-04-11 15:38:00,
2013-04-11 10:43:00,46.4,45.3,29.83,East,87,0.0,5.0,96,0.04,,---,1.29,VWS V14.01,2013-04-11 15:43:00,
2013-04-11 10:48:00,46.3,45.2,29.82,ENE,63,2.0,7.0,96,0.05,,---,1.30,VWS V14.01,2013-04-11 15:48:00,
2013-04-11 10:53:00,46.1,45.0,29.84,ENE,59,1.0,7.0,96,0.05,,---,1.30,VWS V14.01,2013-04-11 15:53:00,
2013-04-11 10:58:00,46.2,45.1,29.86,ENE,57,1.0,7.0,96,0.05,,---,1.30,VWS V14.01,2013-04-11 15:58:00,
2013-04-11 11:03:00,46.3,45.2,29.87,NNW,333,3.0,7.0,96,0.05,,---,1.30,VWS V14.01,2013-04-11 16:03:00,
2013-04-11 11:08:00,46.3,45.2,29.86,WNW,297,1.0,2.0,96,0.04,,---,1.31,VWS V14.01,2013-04-11 16:08:00,
2013-04-11 11:13:00,46.7,45.6,29.84,North,350,0.0,5.0,96,0.04,,---,1.31,VWS V14.01,2013-04-11 16:13:00,
2013-04-11 11:18:00,46.7,45.6,29.83,WSW,242,4.0,5.0,96,0.05,,---,1.32,VWS V14.01,2013-04-11 16:18:00,
2013-04-11 11:23:00,46.6,45.5,29.82,ENE,76,0.0,9.0,96,0.05,,---,1.32,VWS V14.01,2013-04-11 16:23:00,
2013-04-11 11:29:00,46.8,45.7,29.83,ENE,70,3.0,9.0,96,0.05,,---,1.32,VWS V14.01,2013-04-11 16:29:00,
2013-04-11 11:34:00,46.7,45.6,29.85,WSW,244,1.0,9.0,96,0.05,,---,1.32,VWS V14.01,2013-04-11 16:34:00,
2013-04-11 11:36:00,46.9,45.8,29.84,WSW,254,0.0,9.0,96,0.05,,---,1.32,VWS V14.01,2013-04-11 16:36:00,
2013-04-11 11:39:00,46.8,45.7,29.84,WNW,289,3.0,5.0,96,0.05,,---,1.33,VWS V14.01,2013-04-11 16:39:00,
2013-04-11 11:44:00,46.3,45.0,29.84,WNW,289,0.0,5.0,95,0.06,,---,1.34,VWS V14.01,2013-04-11 16:44:00,
2013-04-11 11:49:00,46.7,45.6,29.83,WNW,288,0.0,5.0,96,0.06,,---,1.34,VWS V14.01,2013-04-11 16:49:00,
2013-04-11 11:54:00,47.3,46.2,29.81,West,273,1.0,5.0,96,0.06,,---,1.34,VWS V14.01,2013-04-11 16:54:00,
2013-04-11 11:59:00,47.7,46.6,29.79,NE,42,2.0,5.0,96,0.06,,---,1.34,VWS V14.01,2013-04-11 16:59:00,
2013-04-11 12:04:00,47.9,46.8,29.79,NE,46,1.0,5.0,96,0.06,,---,1.34,VWS V14.01,2013-04-11 17:04:00,
2013-04-11 12:09:00,48.6,47.5,29.79,NNW,344,0.0,2.0,96,0.04,,---,1.34,VWS V14.01,2013-04-11 17:09:00,
2013-04-11 12:14:00,48.5,47.4,29.80,West,272,3.0,4.0,96,0.04,,---,1.34,VWS V14.01,2013-04-11 17:14:00,
2013-04-11 12:19:00,49.0,47.9,29.78,NNW,333,0.0,4.0,96,0.04,,---,1.34,VWS V14.01,2013-04-11 17:19:00,
2013-04-11 12:24:00,48.7,47.3,29.78,ENE,67,2.0,4.0,95,0.04,,---,1.34,VWS V14.01,2013-04-11 17:24:00,
2013-04-11 12:29:00,48.6,47.5,29.80,NE,54,2.0,4.0,96,0.04,,---,1.34,VWS V14.01,2013-04-11 17:29:00,
2013-04-11 12:34:00,48.3,46.9,29.83,SE,130,1.0,4.0,95,0.04,,---,1.34,VWS V14.01,2013-04-11 17:34:00,
2013-04-11 12:39:00,48.5,47.4,29.83,SE,130,0.0,1.0,96,0.02,,---,1.34,VWS V14.01,2013-04-11 17:39:00,
2013-04-11 12:44:00,48.4,47.3,29.81,SE,130,0.0,1.0,96,0.02,,---,1.34,VWS V14.01,2013-04-11 17:44:00,
2013-04-11 12:49:00,48.9,47.5,29.80,SE,130,1.0,1.0,95,0.02,,---,1.34,VWS V14.01,2013-04-11 17:49:00,
2013-04-11 12:54:00,50.1,49.0,29.79,WNW,292,2.0,5.0,96,0.02,,---,1.34,VWS V14.01,2013-04-11 17:54:00,
2013-04-11 12:59:00,51.8,51.0,29.77,North,355,1.0,5.0,97,0.02,,---,1.34,VWS V14.01,2013-04-11 17:59:00,
2013-04-11 13:04:00,50.9,49.2,29.78,NNW,346,2.0,6.0,94,0.02,,---,1.34,VWS V14.01,2013-04-11 18:04:00,
2013-04-11 13:06:00,51.1,49.4,29.77,NNE,28,0.0,6.0,94,0.02,,---,1.34,VWS V14.01,2013-04-11 18:06:00,
2013-04-11 13:09:00,51.3,49.9,29.76,NNE,12,0.0,4.0,95,0.00,,---,1.34,VWS V14.01,2013-04-11 18:09:00,
2013-04-11 13:14:00,51.5,50.1,29.75,East,82,2.0,4.0,95,0.00,,---,1.34,VWS V14.01,2013-04-11 18:14:00,
2013-04-11 13:19:00,52.2,50.8,29.75,North,355,2.0,7.0,95,0.00,,---,1.34,VWS V14.01,2013-04-11 18:19:00,
2013-04-11 13:24:00,52.8,51.1,29.78,NW,309,3.0,12.0,94,0.00,,---,1.34,VWS V14.01,2013-04-11 18:24:00,
2013-04-11 13:29:00,52.7,50.7,29.80,NW,304,3.0,12.0,93,0.00,,---,1.34,VWS V14.01,2013-04-11 18:29:00,
2013-04-11 13:34:00,52.2,50.2,29.80,NW,314,8.0,18.0,93,0.00,,---,1.34,VWS V14.01,2013-04-11 18:34:00,
2013-04-11 13:36:00,51.9,49.7,29.80,NW,311,5.0,18.0,92,0.00,,---,1.34,VWS V14.01,2013-04-11 18:36:00,
2013-04-11 13:39:00,51.5,49.5,29.80,NW,317,5.0,11.0,93,0.00,,---,1.34,VWS V14.01,2013-04-11 18:39:00,
2013-04-11 13:44:00,51.1,49.2,29.81,WNW,290,9.0,12.0,93,0.00,,---,1.34,VWS V14.01,2013-04-11 18:44:00,
2013-04-11 13:49:00,50.5,48.3,29.81,WSW,250,4.0,14.0,92,0.00,,---,1.34,VWS V14.01,2013-04-11 18:49:00,
2013-04-11 13:54:00,50.5,48.6,29.81,West,261,8.0,14.0,93,0.00,,---,1.34,VWS V14.01,2013-04-11 18:54:00,
2013-04-11 13:59:00,51.1,49.2,29.81,NNW,333,2.0,14.0,93,0.00,,---,1.34,VWS V14.01,2013-04-11 18:59:00,
2013-04-11 14:04:00,51.4,48.6,29.82,WNW,286,5.0,14.0,90,0.00,,---,1.34,VWS V14.01,2013-04-11 19:04:00,
2013-04-11 14:06:00,51.2,48.4,29.83,West,268,7.0,14.0,90,0.00,,---,1.34,VWS V14.01,2013-04-11 19:06:00,
2013-04-11 14:09:00,50.9,48.4,29.82,WNW,302,6.0,11.0,91,0.00,,---,1.34,VWS V14.01,2013-04-11 19:09:00,
2013-04-11 14:14:00,51.0,48.2,29.83,WSW,257,6.0,12.0,90,0.00,,---,1.34,VWS V14.01,2013-04-11 19:14:00,
2013-04-11 14:19:00,51.0,47.9,29.82,West,263,3.0,13.0,89,0.00,,---,1.34,VWS V14.01,2013-04-11 19:19:00,
2013-04-11 14:24:00,52.3,49.8,29.81,West,277,5.0,13.0,91,0.00,,---,1.34,VWS V14.01,2013-04-11 19:24:00,
2013-04-11 14:29:00,52.2,48.8,29.80,WNW,291,4.0,13.0,88,0.00,,---,1.34,VWS V14.01,2013-04-11 19:29:00,
2013-04-11 14:34:00,52.6,49.2,29.80,NNW,334,2.0,13.0,88,0.00,,---,1.34,VWS V14.01,2013-04-11 19:34:00,
2013-04-11 14:39:00,52.8,49.0,29.80,West,275,5.0,11.0,87,0.00,,---,1.34,VWS V14.01,2013-04-11 19:39:00,
2013-04-11 14:44:00,53.5,49.1,29.79,NW,308,5.0,11.0,85,0.00,,---,1.34,VWS V14.01,2013-04-11 19:44:00,
2013-04-11 14:49:00,54.4,50.3,29.79,West,271,5.0,11.0,86,0.00,,---,1.34,VWS V14.01,2013-04-11 19:49:00,
2013-04-11 14:54:00,55.3,50.6,29.79,West,263,6.0,11.0,84,0.00,,---,1.34,VWS V14.01,2013-04-11 19:54:00,
2013-04-11 14:59:00,55.4,51.3,29.79,NW,311,6.0,11.0,86,0.00,,---,1.34,VWS V14.01,2013-04-11 19:59:00,
2013-04-11 15:04:00,55.8,51.0,29.79,SW,227,3.0,11.0,84,0.00,,---,1.34,VWS V14.01,2013-04-11 20:04:00,
2013-04-11 15:09:00,56.4,51.0,29.79,West,263,5.0,6.0,82,0.00,,---,1.34,VWS V14.01,2013-04-11 20:09:00,
2013-04-11 15:14:00,56.8,50.7,29.78,West,281,6.0,9.0,80,0.00,,---,1.34,VWS V14.01,2013-04-11 20:14:00,
2013-04-11 15:19:00,57.7,50.9,29.78,WNW,296,1.0,9.0,78,0.00,,---,1.34,VWS V14.01,2013-04-11 20:19:00,
2013-04-11 15:24:00,57.5,50.4,29.77,SW,236,2.0,9.0,77,0.00,,---,1.34,VWS V14.01,2013-04-11 20:24:00,
2013-04-11 15:30:00,57.8,51.3,29.77,West,272,4.0,9.0,79,0.00,,---,1.34,VWS V14.01,2013-04-11 20:30:00,
2013-04-11 15:35:00,58.4,50.9,29.78,WSW,253,6.0,9.0,76,0.00,,---,1.34,VWS V14.01,2013-04-11 20:35:00,
2013-04-11 15:40:00,58.1,50.9,29.78,North,360,3.0,9.0,77,0.00,,---,1.34,VWS V14.01,2013-04-11 20:40:00,
2013-04-11 15:45:00,58.7,52.2,29.77,West,274,5.0,9.0,79,0.00,,---,1.34,VWS V14.01,2013-04-11 20:45:00,
2013-04-11 15:50:00,58.4,51.2,29.77,North,355,1.0,9.0,77,0.00,,---,1.34,VWS V14.01,2013-04-11 20:50:00,
2013-04-11 15:55:00,59.1,52.3,29.77,North,5,0.0,9.0,78,0.00,,---,1.34,VWS V14.01,2013-04-11 20:55:00,
2013-04-11 16:00:00,59.5,51.6,29.77,West,264,5.0,9.0,75,0.00,,---,1.34,VWS V14.01,2013-04-11 21:00:00,
2013-04-11 16:05:00,59.2,51.3,29.77,WNW,302,5.0,9.0,75,0.00,,---,1.34,VWS V14.01,2013-04-11 21:05:00,
2013-04-11 16:10:00,58.8,50.2,29.78,West,263,3.0,8.0,73,0.00,,---,1.34,VWS V14.01,2013-04-11 21:10:00,
2013-04-11 16:15:00,58.6,50.0,29.78,WNW,284,6.0,10.0,73,0.00,,---,1.34,VWS V14.01,2013-04-11 21:15:00,
2013-04-11 16:20:00,58.7,50.1,29.77,West,259,5.0,10.0,73,0.00,,---,1.34,VWS V14.01,2013-04-11 21:20:00,
2013-04-11 16:25:00,58.8,50.5,29.78,SW,234,7.0,10.0,74,0.00,,---,1.34,VWS V14.01,2013-04-11 21:25:00,
2013-04-11 16:30:00,58.6,49.2,29.77,WSW,256,6.0,10.0,71,0.00,,---,1.34,VWS V14.01,2013-04-11 21:30:00,
2013-04-11 16:35:00,58.8,49.4,29.78,West,261,3.0,10.0,71,0.00,,---,1.34,VWS V14.01,2013-04-11 21:35:00,
2013-04-11 16:36:00,59.0,50.4,29.78,WNW,290,3.0,10.0,73,0.00,,---,1.34,VWS V14.01,2013-04-11 21:36:00,
2013-04-11 16:40:00,59.2,49.4,29.78,NW,306,7.0,10.0,70,0.00,,---,1.34,VWS V14.01,2013-04-11 21:40:00,
2013-04-11 16:45:00,59.6,49.4,29.78,SW,233,4.0,10.0,69,0.00,,---,1.34,VWS V14.01,2013-04-11 21:45:00,
2013-04-11 16:50:00,59.8,50.4,29.78,West,260,4.0,10.0,71,0.00,,---,1.34,VWS V14.01,2013-04-11 21:50:00,
2013-04-11 16:55:00,59.9,49.3,29.78,West,279,3.0,10.0,68,0.00,,---,1.34,VWS V14.01,2013-04-11 21:55:00,
2013-04-11 17:00:00,60.1,49.9,29.78,West,279,5.0,10.0,69,0.00,,---,1.34,VWS V14.01,2013-04-11 22:00:00,
2013-04-11 17:05:00,60.1,49.9,29.78,West,280,4.0,10.0,69,0.00,,---,1.34,VWS V14.01,2013-04-11 22:05:00,
2013-04-11 17:06:00,60.2,50.0,29.78,WSW,253,4.0,10.0,69,0.00,,---,1.34,VWS V14.01,2013-04-11 22:06:00,
2013-04-11 17:15:00,59.9,50.1,29.78,WNW,294,2.0,10.0,70,0.00,,---,1.34,VWS V14.01,2013-04-11 22:15:00,
2013-04-11 17:20:00,60.1,49.1,29.78,West,262,6.0,10.0,67,0.00,,---,1.34,VWS V14.01,2013-04-11 22:20:00,
2013-04-11 17:25:00,59.9,49.7,29.78,West,281,4.0,10.0,69,0.00,,---,1.34,VWS V14.01,2013-04-11 22:25:00,
2013-04-11 17:30:00,60.0,50.2,29.78,West,265,4.0,10.0,70,0.00,,---,1.34,VWS V14.01,2013-04-11 22:30:00,
2013-04-11 17:35:00,60.2,49.2,29.79,West,267,5.0,10.0,67,0.00,,---,1.34,VWS V14.01,2013-04-11 22:35:00,
2013-04-11 17:36:00,60.0,49.0,29.79,WSW,250,2.0,10.0,67,0.00,,---,1.34,VWS V14.01,2013-04-11 22:36:00,
2013-04-11 17:40:00,59.8,49.2,29.79,West,267,5.0,7.0,68,0.00,,---,1.34,VWS V14.01,2013-04-11 22:40:00,
2013-04-11 17:45:00,60.2,50.0,29.78,WNW,286,0.0,7.0,69,0.00,,---,1.34,VWS V14.01,2013-04-11 22:45:00,
2013-04-11 17:50:00,60.1,49.9,29.78,WNW,291,2.0,7.0,69,0.00,,---,1.34,VWS V14.01,2013-04-11 22:50:00,
2013-04-11 17:55:00,60.2,50.0,29.79,NNE,32,0.0,7.0,69,0.00,,---,1.34,VWS V14.01,2013-04-11 22:55:00,
2013-04-11 18:00:00,60.0,49.8,29.79,West,259,1.0,7.0,69,0.00,,---,1.34,VWS V14.01,2013-04-11 23:00:00,
2013-04-11 18:05:00,59.8,49.2,29.79,West,270,5.0,8.0,68,0.00,,---,1.34,VWS V14.01,2013-04-11 23:05:00,
2013-04-11 18:10:00,59.5,48.9,29.80,West,271,1.0,7.0,68,0.00,,---,1.34,VWS V14.01,2013-04-11 23:10:00,
2013-04-11 18:15:00,59.3,49.1,29.80,WNW,298,3.0,7.0,69,0.00,,---,1.34,VWS V14.01,2013-04-11 23:15:00,
2013-04-11 18:20:00,59.2,48.7,29.80,West,281,3.0,7.0,68,0.00,,---,1.34,VWS V14.01,2013-04-11 23:20:00,
2013-04-11 18:25:00,59.0,48.9,29.81,WNW,288,2.0,7.0,69,0.00,,---,1.34,VWS V14.01,2013-04-11 23:25:00,
2013-04-11 18:30:00,58.8,49.0,29.81,WNW,282,1.0,7.0,70,0.00,,---,1.34,VWS V14.01,2013-04-11 23:30:00,
2013-04-11 18:35:00,58.6,49.2,29.80,West,263,3.0,7.0,71,0.00,,---,1.34,VWS V14.01,2013-04-11 23:35:00,
2013-04-11 18:36:00,58.5,48.8,29.80,WSW,252,1.0,7.0,70,0.00,,---,1.34,VWS V14.01,2013-04-11 23:36:00,
2013-04-11 18:40:00,58.3,48.2,29.79,West,281,2.0,4.0,69,0.00,,---,1.34,VWS V14.01,2013-04-11 23:40:00,
2013-04-11 18:45:00,57.9,48.6,29.79,WNW,290,2.0,4.0,71,0.00,,---,1.34,VWS V14.01,2013-04-11 23:45:00,
2013-04-11 18:50:00,57.6,48.7,29.78,WNW,290,0.0,4.0,72,0.00,,---,1.34,VWS V14.01,2013-04-11 23:50:00,
2013-04-11 18:55:00,57.4,48.8,29.79,WNW,290,0.0,4.0,73,0.00,,---,1.34,VWS V14.01,2013-04-11 23:55:00,
2013-04-11 19:00:00,57.1,49.3,29.80,WNW,292,3.0,4.0,75,0.00,,---,1.34,VWS V14.01,2013-04-12 00:00:00,
2013-04-11 19:05:00,56.8,48.6,29.80,WNW,282,2.0,5.0,74,0.00,,---,1.34,VWS V14.01,2013-04-12 00:05:00,
2013-04-11 19:10:00,56.5,48.7,29.80,West,281,1.0,4.0,75,0.00,,---,1.34,VWS V14.01,2013-04-12 00:10:00,
2013-04-11 19:15:00,56.1,49.3,29.80,West,281,1.0,4.0,78,0.00,,---,1.34,VWS V14.01,2013-04-12 00:15:00,
2013-04-11 19:20:00,55.6,48.9,29.80,West,281,0.0,4.0,78,0.00,,---,1.34,VWS V14.01,2013-04-12 00:20:00,
2013-04-11 19:25:00,55.0,49.9,29.80,West,281,0.0,4.0,83,0.00,,---,1.34,VWS V14.01,2013-04-12 00:25:00,
2013-04-11 19:30:00,54.3,49.6,29.80,SSW,194,0.0,4.0,84,0.00,,---,1.34,VWS V14.01,2013-04-12 00:30:00,
2013-04-11 19:35:00,53.6,49.2,29.80,SSW,194,0.0,4.0,85,0.00,,---,1.34,VWS V14.01,2013-04-12 00:35:00,
2013-04-11 19:36:00,53.5,49.1,29.80,SSW,194,0.0,4.0,85,0.00,,---,1.34,VWS V14.01,2013-04-12 00:36:00,
2013-04-11 19:40:00,53.3,49.2,29.80,SSW,194,0.0,0.0,86,0.00,,---,1.34,VWS V14.01,2013-04-12 00:40:00,
2013-04-11 19:45:00,52.7,49.0,29.80,SSW,194,0.0,0.0,87,0.00,,---,1.34,VWS V14.01,2013-04-12 00:45:00,
2013-04-11 19:50:00,52.0,48.6,29.80,SSW,194,0.0,0.0,88,0.00,,---,1.34,VWS V14.01,2013-04-12 00:50:00,
2013-04-11 19:55:00,51.5,48.7,29.80,SSW,194,0.0,0.0,90,0.00,,---,1.34,VWS V14.01,2013-04-12 00:55:00,
2013-04-11 20:00:00,51.2,48.7,29.80,SSW,194,0.0,0.0,91,0.00,,---,1.34,VWS V14.01,2013-04-12 01:00:00,
2013-04-11 20:05:00,50.8,48.3,29.81,SSW,194,0.0,0.0,91,0.00,,---,1.34,VWS V14.01,2013-04-12 01:05:00,
2013-04-11 20:10:00,50.6,48.1,29.81,SSW,194,0.0,0.0,91,0.00,,---,1.34,VWS V14.01,2013-04-12 01:10:00,
2013-04-11 20:15:00,50.5,48.3,29.81,SSW,194,0.0,0.0,92,0.00,,---,1.34,VWS V14.01,2013-04-12 01:15:00,
2013-04-11 20:20:00,50.6,48.4,29.81,SSW,194,0.0,0.0,92,0.00,,---,1.34,VWS V14.01,2013-04-12 01:20:00,
2013-04-11 20:25:00,50.2,48.0,29.81,SSW,194,0.0,0.0,92,0.00,,---,1.34,VWS V14.01,2013-04-12 01:25:00,
2013-04-11 20:30:00,49.9,48.0,29.81,SSW,194,0.0,0.0,93,0.00,,---,1.34,VWS V14.01,2013-04-12 01:30:00,
2013-04-11 20:36:00,49.7,47.8,29.81,SSW,194,0.0,0.0,93,0.00,,---,1.34,VWS V14.01,2013-04-12 01:36:00,
2013-04-11 20:41:00,49.7,47.8,29.81,SSW,194,0.0,0.0,93,0.00,,---,1.34,VWS V14.01,2013-04-12 01:41:00,
2013-04-11 20:46:00,49.6,48.0,29.82,SSW,194,0.0,0.0,94,0.00,,---,1.34,VWS V14.01,2013-04-12 01:46:00,
2013-04-11 20:51:00,49.4,47.8,29.82,SSW,194,0.0,0.0,94,0.00,,---,1.34,VWS V14.01,2013-04-12 01:51:00,
2013-04-11 20:56:00,49.3,47.7,29.82,SSW,194,0.0,0.0,94,0.00,,---,1.34,VWS V14.01,2013-04-12 01:56:00,
2013-04-11 21:01:00,49.4,47.8,29.83,SSW,194,0.0,0.0,94,0.00,,---,1.34,VWS V14.01,2013-04-12 02:01:00,
2013-04-11 21:15:00,49.2,47.8,29.83,SSW,194,0.0,0.0,95,0.41,,---,1.34,VWS V14.01,2013-04-12 02:15:00,
2013-04-11 21:20:00,49.1,47.7,29.83,SSW,194,0.0,0.0,95,0.41,,---,1.34,VWS V14.01,2013-04-12 02:20:00,
2013-04-11 21:25:00,48.8,47.4,29.83,SSW,194,0.0,0.0,95,0.41,,---,1.34,VWS V14.01,2013-04-12 02:25:00,
2013-04-11 21:30:00,48.4,47.0,29.83,SSW,194,0.0,0.0,95,0.41,,---,1.34,VWS V14.01,2013-04-12 02:30:00,
2013-04-11 21:35:00,48.2,46.8,29.84,SSW,194,0.0,0.0,95,0.41,,---,1.34,VWS V14.01,2013-04-12 02:35:00,
2013-04-11 21:40:00,48.2,46.8,29.84,SSW,194,0.0,0.0,95,0.41,,---,1.34,VWS V14.01,2013-04-12 02:40:00,
2013-04-11 21:45:00,48.1,46.7,29.85,SSW,194,0.0,0.0,95,0.41,,---,1.34,VWS V14.01,2013-04-12 02:45:00,
2013-04-11 21:50:00,47.9,46.5,29.85,SSW,194,0.0,0.0,95,0.41,,---,1.34,VWS V14.01,2013-04-12 02:50:00,
2013-04-11 21:55:00,47.8,46.4,29.85,SSW,194,0.0,0.0,95,0.41,,---,1.34,VWS V14.01,2013-04-12 02:55:00,
2013-04-11 22:00:00,47.5,46.1,29.86,SSW,194,0.0,0.0,95,0.41,,---,1.34,VWS V14.01,2013-04-12 03:00:00,
2013-04-11 22:05:00,47.4,46.3,29.86,SSW,194,0.0,0.0,96,0.41,,---,1.34,VWS V14.01,2013-04-12 03:05:00,
2013-04-11 22:10:00,47.4,46.3,29.86,SSW,194,0.0,0.0,96,0.00,,---,1.34,VWS V14.01,2013-04-12 03:10:00,
2013-04-11 22:15:00,47.4,46.3,29.86,SSW,194,0.0,0.0,96,0.00,,---,1.34,VWS V14.01,2013-04-12 03:15:00,
2013-04-11 22:20:00,47.3,46.2,29.87,SSW,194,0.0,0.0,96,0.00,,---,1.34,VWS V14.01,2013-04-12 03:20:00,
2013-04-11 22:25:00,47.0,45.9,29.87,SSW,194,0.0,0.0,96,0.00,,---,1.34,VWS V14.01,2013-04-12 03:25:00,
2013-04-11 22:30:00,46.8,45.7,29.87,SSW,194,0.0,0.0,96,0.00,,---,1.34,VWS V14.01,2013-04-12 03:30:00,
2013-04-11 22:35:00,46.7,45.6,29.87,SSW,194,0.0,0.0,96,0.00,,---,1.34,VWS V14.01,2013-04-12 03:35:00,
2013-04-11 22:40:00,46.7,45.6,29.87,SSW,194,0.0,0.0,96,0.00,,---,1.34,VWS V14.01,2013-04-12 03:40:00,
2013-04-11 22:45:00,46.5,45.4,29.87,SSW,194,0.0,0.0,96,0.00,,---,1.34,VWS V14.01,2013-04-12 03:45:00,
2013-04-11 22:50:00,46.3,45.2,29.88,SSW,194,0.0,0.0,96,0.00,,---,1.34,VWS V14.01,2013-04-12 03:50:00,
2013-04-11 22:55:00,46.2,45.1,29.88,SSW,194,0.0,0.0,96,0.00,,---,1.34,VWS V14.01,2013-04-12 03:55:00,
2013-04-11 23:00:00,46.1,45.0,29.88,SSW,194,0.0,0.0,96,0.00,,---,1.34,VWS V14.01,2013-04-12 04:00:00,
2013-04-11 23:05:00,46.0,44.9,29.88,SSW,194,0.0,0.0,96,0.00,,---,1.34,VWS V14.01,2013-04-12 04:05:00,
2013-04-11 23:06:00,46.0,44.9,29.88,SSW,194,0.0,0.0,96,0.00,,---,1.34,VWS V14.01,2013-04-12 04:06:00,
2013-04-11 23:10:00,45.9,44.8,29.88,SSW,194,0.0,0.0,96,0.00,,---,1.34,VWS V14.01,2013-04-12 04:10:00,
2013-04-11 23:16:00,45.8,44.7,29.87,SSW,194,0.0,0.0,96,0.00,,---,1.34,VWS V14.01,2013-04-12 04:16:00,
2013-04-11 23:21:00,45.7,44.6,29.87,SSW,194,0.0,0.0,96,0.00,,---,1.34,VWS V14.01,2013-04-12 04:21:00,
2013-04-11 23:26:00,45.5,44.4,29.88,SSW,194,0.0,0.0,96,0.00,,---,1.34,VWS V14.01,2013-04-12 04:26:00,
2013-04-11 23:31:00,45.3,44.2,29.88,SSW,194,0.0,0.0,96,0.00,,---,1.34,VWS V14.01,2013-04-12 04:31:00,
2013-04-11 23:36:00,45.2,44.1,29.88,SSW,194,0.0,0.0,96,0.00,,---,1.34,VWS V14.01,2013-04-12 04:36:00,
2013-04-11 23:41:00,45.3,44.2,29.88,SSW,194,0.0,0.0,96,0.00,,---,1.34,VWS V14.01,2013-04-12 04:41:00,
2013-04-11 23:46:00,45.3,44.2,29.88,SSW,194,0.0,0.0,96,0.00,,---,1.34,VWS V14.01,2013-04-12 04:46:00,
2013-04-11 23:51:00,45.2,44.1,29.88,SSW,194,0.0,0.0,96,0.00,,---,1.34,VWS V14.01,2013-04-12 04:51:00,
2013-04-11 23:56:00,44.9,43.8,29.88,SSW,194,0.0,0.0,96,0.00,,---,1.34,VWS V14.01,2013-04-12 04:56:00,